createdAt,value
2022-10-14T00:01:42.080Z,18.85
2022-10-14T00:04:10.329Z,18.82
2022-10-14T00:06:40.498Z,18.78
2022-10-14T00:09:11.198Z,18.83
2022-10-14T00:11:39.590Z,18.82
2022-10-14T00:14:11.220Z,18.82
2022-10-14T00:16:41.736Z,18.78
2022-10-14T00:19:10.489Z,18.80
2022-10-14T00:21:43.176Z,18.83
2022-10-14T00:24:13.234Z,18.82
2022-10-14T00:26:43.201Z,18.83
2022-10-14T00:29:14.593Z,18.84
2022-10-14T00:31:43.189Z,18.84
2022-10-14T00:34:13.240Z,18.88
2022-10-14T00:36:43.869Z,18.89
2022-10-14T00:39:13.117Z,18.92
2022-10-14T00:41:44.567Z,18.92
2022-10-14T00:44:46.441Z,18.92
2022-10-14T00:47:14.776Z,18.91
2022-10-14T00:49:46.977Z,18.94
2022-10-14T00:52:19.265Z,18.97
2022-10-14T00:54:52.176Z,18.98
2022-10-14T00:57:23.941Z,18.99
2022-10-14T00:59:54.442Z,18.98
2022-10-14T01:02:22.921Z,18.96
2022-10-14T01:04:52.239Z,18.99
2022-10-14T01:07:37.275Z,18.98
2022-10-14T01:10:14.904Z,18.99
2022-10-14T01:13:02.960Z,19.02
2022-10-14T01:15:40.422Z,18.97
2022-10-14T01:18:21.468Z,18.94
2022-10-14T01:21:18.834Z,18.91
2022-10-14T01:24:49.837Z,18.90
2022-10-14T01:27:55.284Z,18.83
2022-10-14T01:30:26.177Z,18.82
2022-10-14T01:33:08.882Z,18.81
2022-10-14T01:35:48.761Z,18.85
2022-10-14T01:38:22.369Z,18.86
2022-10-14T01:40:56.685Z,18.84
2022-10-14T01:43:27.945Z,18.89
2022-10-14T01:45:59.173Z,18.91
2022-10-14T01:48:33.419Z,18.91
2022-10-14T01:51:07.745Z,18.94
2022-10-14T01:53:40.972Z,18.93
2022-10-14T01:56:12.326Z,18.96
2022-10-14T01:58:41.874Z,18.99
2022-10-14T02:01:11.868Z,18.97
2022-10-14T02:03:42.592Z,18.99
2022-10-14T02:06:17.048Z,18.98
2022-10-14T02:09:03.465Z,18.99
2022-10-14T02:11:40.179Z,18.98
2022-10-14T02:14:20.119Z,19.01
2022-10-14T02:16:59.313Z,19.00
2022-10-14T02:19:34.860Z,18.98
2022-10-14T02:22:09.427Z,18.97
2022-10-14T02:24:42.671Z,18.99
2022-10-14T02:27:15.869Z,18.98
2022-10-14T02:29:47.833Z,19.02
2022-10-14T02:32:20.832Z,19.03
2022-10-14T02:34:52.671Z,19.08
2022-10-14T02:37:23.378Z,19.10
2022-10-14T02:39:58.543Z,19.09
2022-10-14T02:42:27.531Z,19.09
2022-10-14T02:44:57.003Z,19.06
2022-10-14T02:47:27.429Z,19.04
2022-10-14T02:49:56.556Z,19.02
2022-10-14T02:52:26.584Z,18.99
2022-10-14T02:54:54.983Z,18.94
2022-10-14T02:57:23.670Z,18.89
2022-10-14T02:59:51.818Z,18.82
2022-10-14T03:02:20.625Z,18.73
2022-10-14T03:04:50.598Z,18.67
2022-10-14T03:07:18.910Z,18.67
2022-10-14T03:09:47.581Z,18.68
2022-10-14T03:12:15.753Z,18.67
2022-10-14T03:14:43.999Z,18.69
2022-10-14T03:17:12.127Z,18.70
2022-10-14T03:19:40.479Z,18.70
2022-10-14T03:22:11.605Z,18.68
2022-10-14T03:24:39.961Z,18.70
2022-10-14T03:27:08.179Z,18.69
2022-10-14T03:29:37.778Z,18.64
2022-10-14T03:32:06.973Z,18.66
2022-10-14T03:34:35.963Z,18.65
2022-10-14T03:37:08.585Z,18.62
2022-10-14T03:39:38.469Z,18.58
2022-10-14T03:42:06.837Z,18.48
2022-10-14T03:44:35.729Z,18.44
2022-10-14T03:47:04.651Z,18.41
2022-10-14T03:49:36.218Z,18.36
2022-10-14T03:52:06.001Z,18.34
2022-10-14T03:54:35.081Z,18.36
2022-10-14T03:57:05.507Z,18.35
2022-10-14T03:59:37.969Z,18.32
2022-10-14T04:02:06.740Z,18.32
2022-10-14T04:04:36.788Z,18.38
2022-10-14T04:07:04.956Z,18.39
2022-10-14T04:09:34.080Z,18.39
2022-10-14T04:12:03.241Z,18.38
2022-10-14T04:14:33.385Z,18.42
2022-10-14T04:17:01.840Z,18.42
2022-10-14T04:19:30.342Z,18.47
2022-10-14T04:21:58.610Z,18.55
2022-10-14T04:24:27.061Z,18.56
2022-10-14T04:26:55.794Z,18.58
2022-10-14T04:29:24.069Z,18.63
2022-10-14T04:31:53.760Z,18.67
2022-10-14T04:34:22.050Z,18.66
2022-10-14T04:36:50.408Z,18.68
2022-10-14T04:39:19.097Z,18.71
2022-10-14T04:41:47.531Z,18.72
2022-10-14T04:44:15.958Z,18.74
2022-10-14T04:46:44.749Z,18.72
2022-10-14T04:49:16.625Z,18.76
2022-10-14T04:51:45.239Z,18.76
2022-10-14T04:54:13.503Z,18.75
2022-10-14T04:56:41.745Z,18.74
2022-10-14T04:59:10.190Z,18.75
2022-10-14T05:01:39.501Z,18.77
2022-10-14T05:04:08.114Z,18.76
2022-10-14T05:06:41.274Z,18.80
2022-10-14T05:09:11.071Z,18.78
2022-10-14T05:11:40.517Z,18.77
2022-10-14T05:14:10.541Z,18.75
2022-10-14T05:16:40.356Z,18.76
2022-10-14T05:19:12.123Z,18.75
2022-10-14T05:21:42.861Z,18.75
2022-10-14T05:24:11.653Z,18.72
2022-10-14T05:26:40.262Z,18.72
2022-10-14T05:29:13.631Z,18.72
2022-10-14T05:31:41.990Z,18.67
2022-10-14T05:34:11.802Z,18.70
2022-10-14T05:36:47.269Z,18.66
2022-10-14T05:39:23.979Z,18.61
2022-10-14T06:48:12.655Z,17.79
2022-10-14T06:50:41.415Z,17.85
2022-10-14T06:53:16.467Z,17.87
2022-10-14T06:58:35.942Z,17.94
2022-10-14T07:01:15.427Z,17.96
2022-10-14T07:03:46.016Z,17.99
2022-10-14T07:06:32.223Z,17.97
2022-10-14T07:09:06.934Z,18.03
2022-10-14T07:11:55.386Z,18.04
2022-10-14T07:39:15.294Z,18.39
2022-10-14T07:41:54.630Z,18.41
2022-10-14T07:44:31.266Z,18.44
2022-10-14T07:47:06.550Z,18.48
2022-10-14T07:49:37.484Z,18.55
2022-10-14T07:52:07.599Z,18.58
2022-10-14T07:54:39.885Z,18.66
2022-10-14T07:57:18.188Z,18.70
2022-10-14T08:00:02.896Z,18.75
2022-10-14T08:02:31.718Z,18.82
2022-10-14T08:05:25.450Z,18.86
2022-10-14T08:07:52.983Z,18.89
2022-10-14T08:10:24.062Z,18.98
2022-10-14T08:13:04.347Z,19.05
2022-10-14T08:15:43.914Z,19.12
2022-10-14T08:18:13.312Z,19.17
2022-10-14T08:20:54.783Z,19.29
2022-10-14T08:23:53.481Z,19.32
2022-10-14T08:33:55.035Z,19.50
2022-10-14T08:36:26.093Z,19.45
2022-10-14T08:42:29.705Z,19.58
2022-10-14T08:45:08.951Z,19.66
2022-10-14T08:47:41.144Z,19.65
2022-10-14T08:50:23.358Z,19.67
2022-10-14T08:53:10.788Z,19.73
2022-10-14T08:55:43.266Z,19.75
2022-10-14T08:58:22.275Z,19.80
2022-10-14T09:00:53.469Z,19.84
2022-10-14T09:03:24.436Z,19.85
2022-10-14T09:06:03.301Z,19.82
2022-10-14T09:08:42.353Z,19.83
2022-10-14T09:11:18.805Z,19.87
2022-10-14T09:13:50.530Z,19.90
2022-10-14T09:16:24.637Z,20.01
2022-10-14T09:18:59.478Z,20.06
2022-10-14T09:24:29.931Z,20.12
2022-10-14T09:27:02.696Z,20.17
2022-10-14T09:29:36.501Z,20.20
2022-10-14T09:32:07.343Z,20.20
2022-10-14T09:34:38.438Z,20.17
2022-10-14T09:37:28.985Z,20.16
2022-10-14T09:40:04.838Z,20.16
2022-10-14T09:42:49.003Z,20.16
2022-10-14T09:45:22.826Z,20.17
2022-10-14T09:47:57.659Z,20.20
2022-10-14T09:50:29.132Z,20.24
2022-10-14T09:53:04.324Z,20.27
2022-10-14T09:55:34.332Z,20.33
2022-10-14T09:58:07.163Z,20.41
2022-10-14T10:00:38.142Z,20.50
2022-10-14T10:03:07.896Z,20.55
2022-10-14T10:05:48.956Z,20.56
2022-10-14T10:08:21.017Z,20.62
2022-10-14T10:11:03.762Z,20.73
2022-10-14T10:13:44.014Z,20.92
2022-10-14T10:16:25.330Z,21.06
2022-10-14T10:18:55.900Z,21.22
2022-10-14T10:21:26.536Z,21.24
2022-10-14T10:23:58.786Z,21.23
2022-10-14T10:26:31.465Z,21.19
2022-10-14T10:29:00.605Z,21.12
2022-10-14T10:31:45.254Z,21.12
2022-10-14T10:34:45.963Z,21.12
2022-10-14T10:37:26.289Z,21.15
2022-10-14T10:40:09.792Z,21.17
2022-10-14T10:42:49.694Z,21.19
2022-10-14T10:45:39.125Z,21.25
2022-10-14T10:48:15.276Z,21.40
2022-10-14T10:50:56.469Z,21.45
2022-10-14T10:53:45.770Z,21.40
2022-10-14T10:56:33.853Z,21.30
2022-10-14T10:59:22.334Z,21.24
2022-10-14T11:01:58.229Z,21.26
2022-10-14T11:04:33.199Z,21.29
2022-10-14T11:07:35.807Z,21.38
2022-10-14T11:10:35.447Z,21.46
2022-10-14T11:13:11.315Z,21.55
2022-10-14T11:15:48.600Z,21.55
2022-10-14T11:18:30.895Z,21.52
2022-10-14T11:21:10.502Z,21.42
2022-10-14T11:23:49.916Z,21.46
2022-10-14T11:26:45.807Z,21.57
2022-10-14T11:29:28.603Z,21.59
2022-10-14T11:32:05.315Z,21.63
2022-10-14T11:34:44.220Z,21.63
2022-10-14T11:37:26.576Z,21.66
2022-10-14T11:39:59.690Z,21.78
2022-10-14T11:42:36.105Z,21.87
2022-10-14T11:45:44.109Z,21.76
2022-10-14T11:48:29.183Z,21.68
2022-10-14T11:51:02.936Z,21.60
2022-10-14T11:53:47.103Z,21.57
2022-10-14T11:56:29.686Z,21.56
2022-10-14T11:59:03.457Z,21.56
2022-10-14T12:01:40.292Z,21.63
2022-10-14T12:04:17.837Z,21.62
2022-10-14T12:06:56.957Z,21.59
2022-10-14T12:09:29.500Z,21.55
2022-10-14T12:12:01.346Z,21.47
2022-10-14T12:14:35.214Z,21.45
2022-10-14T12:17:07.943Z,21.29
2022-10-14T12:19:37.722Z,21.21
2022-10-14T12:22:17.080Z,21.22
2022-10-14T12:24:50.844Z,21.42
2022-10-14T12:27:21.499Z,21.57
2022-10-14T12:29:51.378Z,21.70
2022-10-14T12:32:24.729Z,21.78
2022-10-14T12:34:57.459Z,21.79
2022-10-14T12:37:54.446Z,21.69
2022-10-14T12:40:30.885Z,21.64
2022-10-14T12:43:06.423Z,21.53
2022-10-14T12:45:37.383Z,21.44
2022-10-14T12:48:15.935Z,21.44
2022-10-14T12:50:46.874Z,21.42
2022-10-14T12:53:23.978Z,21.49
2022-10-14T12:55:55.399Z,21.59
2022-10-14T12:58:30.497Z,21.68
2022-10-14T13:01:03.474Z,21.83
2022-10-14T13:03:38.485Z,21.97
2022-10-14T13:06:33.568Z,22.02
2022-10-14T13:09:21.144Z,22.10
2022-10-14T13:12:28.272Z,22.08
2022-10-14T13:15:01.856Z,21.99
2022-10-14T13:17:44.110Z,21.79
2022-10-14T13:20:53.833Z,21.67
2022-10-14T13:23:33.175Z,21.57
2022-10-14T13:26:12.189Z,21.58
2022-10-14T13:28:46.408Z,21.64
2022-10-14T13:31:20.862Z,21.70
2022-10-14T13:33:55.616Z,21.81
2022-10-14T13:36:35.707Z,21.89
2022-10-14T13:39:05.218Z,21.95
2022-10-14T13:41:34.781Z,21.94
2022-10-14T13:44:03.864Z,21.98
2022-10-14T13:46:37.250Z,22.07
2022-10-14T13:49:08.757Z,22.08
2022-10-14T13:51:46.376Z,22.14
2022-10-14T13:54:21.073Z,22.04
2022-10-14T14:02:39.997Z,22.03
2022-10-14T14:05:15.656Z,22.04
2022-10-14T14:10:42.501Z,21.60
2022-10-14T14:13:14.587Z,21.45
2022-10-14T14:15:43.608Z,21.41
2022-10-14T14:18:33.952Z,21.39
2022-10-14T14:21:14.332Z,21.37
2022-10-14T14:23:52.999Z,21.36
2022-10-14T14:26:22.727Z,21.36
2022-10-14T14:28:52.284Z,21.38
2022-10-14T14:31:30.335Z,21.55
2022-10-14T14:34:06.586Z,21.87
2022-10-14T14:36:50.704Z,22.26
2022-10-14T14:39:26.006Z,22.75
2022-10-14T14:41:56.606Z,23.20
2022-10-14T14:44:29.251Z,23.40
2022-10-14T14:47:00.543Z,23.46
2022-10-14T14:49:32.191Z,23.31
2022-10-14T14:52:02.322Z,23.05
2022-10-14T14:54:32.323Z,22.74
2022-10-14T14:57:06.055Z,22.48
2022-10-14T14:59:37.994Z,22.26
2022-10-14T15:02:16.335Z,22.17
2022-10-14T15:04:44.860Z,22.24
2022-10-14T15:07:21.317Z,22.44
2022-10-14T15:09:58.615Z,22.53
2022-10-14T15:12:39.326Z,22.58
2022-10-14T15:15:32.281Z,22.60
2022-10-14T15:18:13.871Z,22.56
2022-10-14T15:20:43.493Z,22.49
2022-10-14T15:23:41.095Z,22.49
2022-10-14T15:26:27.193Z,22.46
2022-10-14T15:29:07.786Z,22.42
2022-10-14T15:31:37.885Z,22.28
2022-10-14T15:34:07.153Z,22.19
2022-10-14T15:36:36.240Z,22.15
2022-10-14T15:39:04.709Z,22.04
2022-10-14T15:41:35.096Z,22.01
2022-10-14T15:44:03.368Z,21.94
2022-10-14T15:46:49.136Z,21.97
2022-10-14T15:49:21.925Z,22.13
2022-10-14T15:51:50.183Z,22.18
2022-10-14T15:54:18.308Z,22.11
2022-10-14T15:56:49.369Z,22.00
2022-10-14T15:59:19.312Z,21.96
2022-10-14T16:01:54.194Z,21.87
2022-10-14T16:04:24.796Z,21.80
2022-10-14T16:06:55.368Z,21.70
2022-10-14T16:09:27.785Z,21.66
2022-10-14T16:12:00.769Z,21.59
2022-10-14T16:14:29.618Z,21.72
2022-10-14T16:16:58.000Z,21.74
2022-10-14T16:19:27.028Z,21.76
2022-10-14T16:21:55.459Z,21.80
2022-10-14T16:24:26.240Z,21.93
2022-10-14T16:26:56.754Z,22.12
2022-10-14T16:29:28.633Z,22.38
2022-10-14T16:31:59.534Z,22.50
2022-10-14T16:34:28.898Z,22.53
2022-10-14T16:36:57.836Z,22.58
2022-10-14T16:39:26.085Z,22.57
2022-10-14T16:41:55.925Z,22.56
2022-10-14T16:44:28.038Z,22.50
2022-10-14T16:47:15.467Z,22.36
2022-10-14T16:49:45.293Z,22.33
2022-10-14T16:52:13.679Z,22.25
2022-10-14T16:54:42.216Z,22.12
2022-10-14T16:57:10.369Z,22.09
2022-10-14T16:59:40.645Z,21.97
2022-10-14T17:02:11.168Z,21.77
2022-10-14T17:04:41.255Z,21.50
2022-10-14T17:07:09.552Z,21.38
2022-10-14T17:09:41.563Z,21.21
2022-10-14T17:12:13.857Z,21.07
2022-10-14T17:14:50.926Z,20.97
2022-10-14T17:17:24.355Z,20.83
2022-10-14T17:19:54.014Z,20.70
2022-10-14T17:22:23.089Z,20.55
2022-10-14T17:24:52.120Z,20.45
2022-10-14T17:27:24.221Z,20.35
2022-10-14T17:29:54.471Z,20.28
2022-10-14T17:32:23.173Z,20.20
2022-10-14T17:34:53.486Z,20.11
2022-10-14T17:37:22.969Z,20.01
2022-10-14T17:39:51.166Z,19.91
2022-10-14T17:42:19.617Z,19.80
2022-10-14T17:44:49.619Z,19.67
2022-10-14T17:47:20.131Z,19.61
2022-10-14T17:49:50.732Z,19.52
2022-10-14T17:52:21.578Z,19.48
2022-10-14T17:54:52.084Z,19.41
2022-10-14T17:57:33.121Z,19.37
2022-10-14T18:02:58.553Z,19.30
2022-10-14T18:05:26.974Z,19.23
2022-10-14T18:07:56.136Z,19.23
2022-10-14T18:10:26.397Z,19.23
2022-10-14T18:12:55.291Z,19.18
2022-10-14T18:15:23.754Z,19.15
2022-10-14T18:17:54.108Z,19.10
2022-10-14T18:20:25.171Z,19.09
2022-10-14T18:22:54.337Z,19.07
2022-10-14T18:25:22.608Z,19.05
2022-10-14T18:27:54.569Z,19.03
2022-10-14T18:30:22.680Z,19.02
2022-10-14T18:32:50.828Z,18.99
2022-10-14T18:35:19.031Z,18.95
2022-10-14T18:37:49.421Z,18.94
2022-10-14T18:40:18.522Z,18.89
2022-10-14T18:42:46.745Z,18.85
2022-10-14T18:45:15.479Z,18.81
2022-10-14T18:47:43.570Z,18.76
2022-10-14T18:50:11.830Z,18.80
2022-10-14T18:52:40.126Z,18.76
2022-10-14T18:55:10.836Z,18.77
2022-10-14T18:57:39.177Z,18.80
2022-10-14T19:00:13.487Z,18.82
2022-10-14T19:02:42.579Z,18.84
2022-10-14T19:05:10.996Z,18.87
2022-10-14T19:07:39.275Z,18.87
2022-10-14T19:10:11.116Z,18.88
2022-10-14T19:12:42.496Z,18.89
2022-10-14T19:15:12.096Z,18.88
2022-10-14T19:17:42.917Z,18.86
2022-10-14T19:20:11.301Z,18.87
2022-10-14T19:22:44.873Z,18.83
2022-10-14T19:25:16.544Z,18.85
2022-10-14T19:27:44.736Z,18.82
2022-10-14T19:30:13.515Z,18.81
2022-10-14T19:32:41.796Z,18.80
2022-10-14T19:35:10.019Z,18.79
2022-10-14T19:37:38.130Z,18.80
2022-10-14T19:40:27.446Z,18.82
2022-10-14T19:42:56.963Z,18.75
2022-10-14T19:45:25.398Z,18.73
2022-10-14T19:47:53.570Z,18.71
2022-10-14T19:50:21.792Z,18.69
2022-10-14T19:52:49.837Z,18.62
2022-10-14T19:55:18.110Z,18.66
2022-10-14T19:57:46.167Z,18.62
2022-10-14T20:00:16.788Z,18.64
2022-10-14T20:02:45.811Z,18.58
2022-10-14T20:05:13.870Z,18.59
2022-10-14T20:07:41.975Z,18.58
2022-10-14T20:10:12.189Z,18.54
2022-10-14T20:12:40.461Z,18.55
2022-10-14T20:15:10.110Z,18.50
2022-10-14T20:17:39.759Z,18.50
2022-10-14T20:20:09.073Z,18.46
2022-10-14T20:22:37.237Z,18.45
2022-10-14T20:25:05.823Z,18.43
2022-10-14T20:27:34.126Z,18.42
2022-10-14T20:30:02.259Z,18.40
2022-10-14T20:32:30.530Z,18.38
2022-10-14T20:35:00.052Z,18.40
2022-10-14T20:37:28.381Z,18.40
2022-10-14T20:39:56.520Z,18.41
2022-10-14T20:42:24.788Z,18.42
2022-10-14T20:44:52.932Z,18.41
2022-10-14T20:47:21.493Z,18.44
2022-10-14T20:49:49.842Z,18.42
2022-10-14T20:52:19.382Z,18.42
2022-10-14T20:54:47.579Z,18.40
2022-10-14T20:57:15.790Z,18.38
2022-10-14T20:59:43.942Z,18.39
2022-10-14T21:02:17.313Z,18.42
2022-10-14T21:04:48.461Z,18.43
2022-10-14T21:07:20.160Z,18.46
2022-10-14T21:09:49.313Z,18.47
2022-10-14T21:12:17.615Z,18.51
2022-10-14T21:14:45.875Z,18.52
2022-10-14T21:17:14.211Z,18.53
2022-10-14T21:19:43.750Z,18.57
2022-10-14T21:22:12.802Z,18.55
2022-10-14T21:24:43.481Z,18.59
2022-10-14T21:27:11.649Z,18.63
2022-10-14T21:29:40.563Z,18.66
2022-10-14T21:32:09.150Z,18.70
2022-10-14T21:34:37.328Z,18.71
2022-10-14T21:37:06.509Z,18.74
2022-10-14T21:39:34.877Z,18.77
2022-10-14T21:42:04.890Z,18.78
2022-10-14T21:44:33.478Z,18.80
2022-10-14T21:47:01.989Z,18.76
2022-10-14T21:49:30.482Z,18.77
2022-10-14T21:51:58.955Z,18.78
2022-10-14T21:54:27.894Z,18.78
2022-10-14T21:59:27.559Z,18.78
2022-10-14T22:01:59.095Z,18.79
2022-10-14T22:04:28.359Z,18.80
2022-10-14T22:06:56.709Z,18.84
2022-10-14T22:09:26.039Z,18.84
2022-10-14T22:11:55.175Z,18.84
2022-10-14T22:14:23.382Z,18.85
2022-10-14T22:16:54.641Z,18.86
2022-10-14T22:19:24.831Z,18.90
2022-10-14T22:21:59.454Z,18.86
2022-10-14T22:24:32.825Z,18.87
2022-10-14T22:27:01.930Z,18.85
2022-10-14T22:29:31.435Z,18.88
2022-10-14T22:32:03.248Z,18.88
2022-10-14T22:34:33.088Z,18.84
2022-10-14T22:37:01.893Z,18.85
2022-10-14T22:39:30.507Z,18.90
2022-10-14T22:41:58.751Z,18.86
2022-10-14T22:44:26.931Z,18.84
2022-10-14T22:46:55.520Z,18.85
2022-10-14T22:49:25.575Z,18.83
2022-10-14T22:51:58.423Z,18.82
2022-10-14T22:54:28.437Z,18.81
2022-10-14T22:57:00.360Z,18.78
2022-10-14T22:59:28.861Z,18.78
2022-10-14T23:01:58.072Z,18.80
2022-10-14T23:04:29.416Z,18.84
2022-10-14T23:07:06.986Z,18.87
2022-10-14T23:09:39.423Z,18.89
2022-10-14T23:12:15.184Z,18.88
2022-10-14T23:14:43.716Z,18.89
2022-10-14T23:17:12.812Z,18.91
2022-10-14T23:19:45.283Z,18.88
2022-10-14T23:22:13.743Z,18.81
2022-10-14T23:24:41.839Z,18.80
2022-10-14T23:27:10.062Z,18.76
2022-10-14T23:29:38.305Z,18.77
2022-10-14T23:32:09.612Z,18.80
2022-10-14T23:34:37.870Z,18.74
2022-10-14T23:37:07.576Z,18.77
2022-10-14T23:39:36.086Z,18.76
2022-10-14T23:42:04.563Z,18.71
2022-10-14T23:44:36.023Z,18.66
2022-10-14T23:47:04.748Z,18.62
2022-10-14T23:49:33.213Z,18.52
2022-10-14T23:52:09.813Z,18.42
2022-10-14T23:54:39.870Z,18.31
2022-10-14T23:57:09.225Z,18.21
2022-10-14T23:59:38.506Z,18.13
